createdAt,value
2022-08-10T06:10:32.196Z,15.40
2022-08-10T06:13:30.853Z,15.41
2022-08-10T06:16:05.672Z,15.60
2022-08-10T06:18:34.161Z,15.68
2022-08-10T06:21:03.083Z,15.91
2022-08-10T06:23:32.354Z,15.20
2022-08-10T06:26:11.332Z,16.14
2022-08-10T06:28:58.235Z,16.25
2022-08-10T06:31:48.901Z,16.10
2022-08-10T06:34:22.037Z,16.42
2022-08-10T06:36:51.031Z,16.54
2022-08-10T06:39:35.912Z,16.84
2022-08-10T06:42:15.526Z,16.85
2022-08-10T06:44:50.256Z,16.90
2022-08-10T06:47:22.817Z,16.39
2022-08-10T06:49:59.540Z,17.01
2022-08-10T06:52:33.779Z,16.93
2022-08-10T06:55:05.651Z,17.22
2022-08-10T06:57:39.714Z,17.32
2022-08-10T07:00:09.716Z,17.39
2022-08-10T07:02:45.254Z,17.54
2022-08-10T07:05:19.078Z,17.74
2022-08-10T07:07:48.625Z,16.94
2022-08-10T07:10:19.709Z,17.22
2022-08-10T07:12:51.078Z,17.96
2022-08-10T07:15:20.593Z,17.57
2022-08-10T07:17:49.422Z,17.47
2022-08-10T07:20:19.779Z,18.17
2022-08-10T07:23:01.598Z,18.19
2022-08-10T07:25:39.583Z,18.25
2022-08-10T07:28:09.356Z,18.10
2022-08-10T07:30:39.166Z,18.40
2022-08-10T07:33:08.368Z,18.49
2022-08-10T07:35:42.648Z,18.69
2022-08-10T07:38:14.016Z,18.89
2022-08-10T07:40:44.857Z,18.15
2022-08-10T07:43:16.244Z,19.20
2022-08-10T07:45:44.280Z,19.01
2022-08-10T07:48:16.307Z,19.46
2022-08-10T07:50:46.364Z,19.60
2022-08-10T07:53:20.939Z,20.40
2022-08-10T07:56:02.865Z,21.37
2022-08-10T07:58:49.883Z,21.99
2022-08-10T08:01:24.159Z,21.85
2022-08-10T08:04:05.674Z,21.61
2022-08-10T08:06:42.514Z,21.57
2022-08-10T08:09:11.735Z,21.39
2022-08-10T08:11:42.160Z,21.15
2022-08-10T08:14:12.784Z,21.76
2022-08-10T08:16:44.536Z,21.53
2022-08-10T08:19:37.081Z,20.45
2022-08-10T08:24:10.786Z,21.08
2022-08-10T08:24:57.669Z,20.98
2022-08-10T08:27:27.188Z,20.94
2022-08-10T08:29:56.854Z,21.05
2022-08-10T08:32:27.667Z,20.80
2022-08-10T08:34:59.066Z,21.14
2022-08-10T08:38:31.883Z,21.06
2022-08-10T08:40:23.271Z,20.75
2022-08-10T08:43:21.383Z,21.08
2022-08-10T08:46:28.666Z,20.77
2022-08-10T08:50:08.012Z,20.66
2022-08-10T08:52:18.222Z,20.68
2022-08-10T08:54:59.045Z,21.03
2022-08-10T08:57:50.568Z,20.39
2022-08-10T09:00:26.501Z,21.12
2022-08-10T09:03:17.883Z,21.04
2022-08-10T09:05:59.627Z,21.08
2022-08-10T09:08:51.032Z,21.20
2022-08-10T09:11:31.556Z,20.49
2022-08-10T09:14:05.653Z,21.13
2022-08-10T09:16:52.474Z,21.18
2022-08-10T09:19:35.038Z,21.13
2022-08-10T09:22:18.082Z,20.66
2022-08-10T09:24:50.910Z,20.96
2022-08-10T09:27:21.542Z,21.13
2022-08-10T09:29:55.760Z,21.08
2022-08-10T09:36:14.575Z,20.98
2022-08-10T09:36:19.402Z,21.49
2022-08-10T09:38:29.817Z,21.53
2022-08-10T09:41:12.253Z,21.22
2022-08-10T09:43:53.242Z,21.00
2022-08-10T09:46:34.973Z,21.30
2022-08-10T09:49:09.721Z,21.20
2022-08-10T09:51:55.390Z,21.33
2022-08-10T09:54:37.003Z,21.62
2022-08-10T09:57:43.496Z,21.71
2022-08-10T10:00:10.592Z,21.69
2022-08-10T10:02:52.349Z,21.52
2022-08-10T10:05:31.044Z,21.85
2022-08-10T10:08:07.262Z,21.98
2022-08-10T10:10:46.555Z,22.05
2022-08-10T10:13:52.864Z,21.66
2022-08-10T10:16:26.850Z,21.52
2022-08-10T10:19:05.480Z,21.71
2022-08-10T10:21:55.087Z,21.79
2022-08-10T10:24:42.389Z,21.85
2022-08-10T10:27:24.720Z,22.19
2022-08-10T10:30:05.859Z,22.42
2022-08-10T10:32:48.703Z,22.58
2022-08-10T10:35:24.495Z,21.96
2022-08-10T10:38:01.861Z,22.16
2022-08-10T10:40:41.073Z,22.86
2022-08-10T10:43:18.208Z,22.58
2022-08-10T10:46:09.783Z,22.91
2022-08-10T10:48:42.559Z,23.08
2022-08-10T10:51:17.386Z,23.16
2022-08-10T10:53:51.344Z,22.47
2022-08-10T10:56:29.063Z,22.60
2022-08-10T10:59:33.219Z,22.69
2022-08-10T11:02:10.198Z,23.43
2022-08-10T11:04:43.885Z,23.06
2022-08-10T11:07:31.976Z,23.57
2022-08-10T11:10:19.778Z,23.87
2022-08-10T11:14:23.188Z,23.49
2022-08-10T11:16:02.416Z,24.02
2022-08-10T11:18:49.212Z,23.90
2022-08-10T11:21:25.748Z,23.78
2022-08-10T11:24:47.037Z,24.07
2022-08-10T11:26:59.709Z,24.16
2022-08-10T11:29:34.944Z,23.92
2022-08-10T11:32:07.814Z,23.64
2022-08-10T11:35:11.517Z,23.46
2022-08-10T11:38:32.816Z,23.29
2022-08-10T11:40:40.039Z,23.16
2022-08-10T11:43:12.451Z,22.81
2022-08-10T11:45:52.565Z,22.76
2022-08-10T11:48:53.239Z,22.58
2022-08-10T11:51:22.203Z,23.30
2022-08-10T11:53:58.830Z,23.70
2022-08-10T11:56:34.335Z,23.53
2022-08-10T11:59:24.213Z,23.26
2022-08-10T12:01:55.723Z,24.06
2022-08-10T12:04:25.528Z,23.90
2022-08-10T12:06:56.015Z,23.85
2022-08-10T12:10:05.466Z,23.51
2022-08-10T12:12:14.342Z,23.65
2022-08-10T12:14:48.063Z,23.79
2022-08-10T12:17:21.969Z,23.56
2022-08-10T12:20:02.612Z,23.53
2022-08-10T12:22:35.276Z,23.25
2022-08-10T12:25:06.963Z,23.63
2022-08-10T12:27:41.008Z,23.28
2022-08-10T12:30:10.993Z,23.12
2022-08-10T12:32:46.363Z,23.15
2022-08-10T12:35:22.772Z,23.47
2022-08-10T12:38:05.877Z,23.23
2022-08-10T12:40:41.314Z,23.63
2022-08-10T12:44:05.035Z,23.04
2022-08-10T12:46:08.225Z,23.43
2022-08-10T12:48:44.938Z,23.46
2022-08-10T12:51:19.599Z,23.00
2022-08-10T12:53:54.645Z,22.92
2022-08-10T12:56:25.604Z,23.63
2022-08-10T12:58:59.483Z,23.59
2022-08-10T13:02:06.919Z,23.28
2022-08-10T13:04:30.860Z,23.58
2022-08-10T13:07:01.228Z,23.42
2022-08-10T13:09:29.835Z,22.66
2022-08-10T13:12:36.916Z,23.17
2022-08-10T13:14:55.998Z,23.43
2022-08-10T13:17:39.121Z,23.40
2022-08-10T13:20:17.846Z,23.40
2022-08-10T13:22:49.307Z,22.83
2022-08-10T13:25:21.075Z,23.44
2022-08-10T13:28:01.158Z,23.41
2022-08-10T13:30:40.364Z,23.36
2022-08-10T13:33:10.291Z,23.47
2022-08-10T13:35:40.193Z,23.16
2022-08-10T13:38:10.268Z,23.50
2022-08-10T13:40:39.735Z,23.49
2022-08-10T13:43:10.913Z,23.54
2022-08-10T13:45:46.394Z,22.87
2022-08-10T13:48:20.491Z,23.54
2022-08-10T13:50:51.797Z,23.59
2022-08-10T13:53:23.458Z,23.48
2022-08-10T13:55:56.365Z,23.36
2022-08-10T13:58:29.182Z,22.89
2022-08-10T14:00:58.860Z,23.59
2022-08-10T14:03:28.033Z,23.51
2022-08-10T14:05:59.439Z,23.57
2022-08-10T14:08:30.297Z,23.29
2022-08-10T14:11:11.863Z,23.31
2022-08-10T14:13:45.202Z,23.49
2022-08-10T14:16:14.343Z,23.56
2022-08-10T14:18:45.720Z,23.60
2022-08-10T14:21:15.790Z,23.79
2022-08-10T14:23:53.308Z,23.82
2022-08-10T14:26:26.007Z,23.84
2022-08-10T14:28:57.143Z,23.28
2022-08-10T14:31:31.125Z,23.85
2022-08-10T14:34:01.734Z,23.48
2022-08-10T14:36:44.949Z,23.88
2022-08-10T14:39:20.680Z,23.47
2022-08-10T14:42:03.156Z,23.92
2022-08-10T14:44:46.036Z,24.01
2022-08-10T14:47:59.467Z,23.62
2022-08-10T14:50:31.585Z,23.84
2022-08-10T14:53:09.640Z,23.81
2022-08-10T14:55:59.264Z,23.35
2022-08-10T14:58:32.895Z,22.81
2022-08-10T15:01:01.923Z,23.65
2022-08-10T15:03:58.610Z,23.98
2022-08-10T15:06:30.345Z,23.94
2022-08-10T15:09:19.495Z,23.76
2022-08-10T15:12:11.899Z,23.97
2022-08-10T15:14:46.080Z,24.14
2022-08-10T15:17:26.750Z,24.03
2022-08-10T15:20:03.225Z,24.20
2022-08-10T15:22:41.533Z,24.17
2022-08-10T15:25:19.470Z,23.76
2022-08-10T15:27:55.728Z,23.88
2022-08-10T15:30:50.598Z,24.14
2022-08-10T15:34:02.158Z,24.02
2022-08-10T15:36:46.141Z,24.12
2022-08-10T15:40:24.437Z,24.07
2022-08-10T15:42:21.932Z,24.05
2022-08-10T15:44:53.430Z,23.63
2022-08-10T15:47:28.175Z,23.90
2022-08-10T15:50:18.884Z,24.03
2022-08-10T15:53:00.403Z,23.17
2022-08-10T15:55:43.131Z,23.92
2022-08-10T15:58:20.253Z,24.15
2022-08-10T16:02:13.373Z,23.50
2022-08-10T16:04:08.469Z,23.39
2022-08-10T16:06:49.978Z,23.61
2022-08-10T16:10:22.741Z,23.60
2022-08-10T16:12:14.322Z,23.49
2022-08-10T16:14:50.248Z,24.05
2022-08-10T16:17:19.454Z,23.92
2022-08-10T16:19:50.783Z,23.90
2022-08-10T16:22:34.155Z,23.81
2022-08-10T16:25:13.711Z,22.71
2022-08-10T16:27:45.743Z,23.79
2022-08-10T16:30:15.938Z,23.76
2022-08-10T16:32:47.526Z,23.77
2022-08-10T16:35:21.032Z,23.51
2022-08-10T16:37:58.017Z,23.82
2022-08-10T16:40:28.857Z,23.78
2022-08-10T16:42:58.929Z,23.77
2022-08-10T16:45:34.451Z,22.92
2022-08-10T16:48:04.918Z,23.07
2022-08-10T16:50:38.617Z,23.38
2022-08-10T16:53:08.381Z,23.70
2022-08-10T16:55:49.551Z,23.70
2022-08-10T16:58:20.786Z,23.51
2022-08-10T17:01:21.165Z,23.77
2022-08-10T17:04:05.623Z,23.59
2022-08-10T17:06:41.800Z,23.50
2022-08-10T17:09:17.090Z,23.21
2022-08-10T17:11:49.142Z,23.22
2022-08-10T17:14:17.295Z,23.24
2022-08-10T17:16:53.815Z,23.17
2022-08-10T17:19:23.709Z,23.14
2022-08-10T17:21:57.190Z,23.14
2022-08-10T17:24:29.865Z,23.16
2022-08-10T17:26:59.441Z,23.06
2022-08-10T17:29:58.252Z,22.51
2022-08-10T17:32:31.551Z,21.85
2022-08-10T17:35:02.166Z,22.80
2022-08-10T17:37:37.332Z,22.17
2022-08-10T17:40:09.053Z,22.46
2022-08-10T17:42:39.327Z,22.64
2022-08-10T17:45:14.929Z,22.54
2022-08-10T17:48:08.110Z,22.45
2022-08-10T17:50:37.930Z,21.98
2022-08-10T17:53:14.418Z,22.48
2022-08-10T17:55:49.272Z,21.95
2022-08-10T17:58:20.731Z,21.79
2022-08-10T18:00:50.924Z,22.33
2022-08-10T18:03:25.546Z,21.59
2022-08-10T18:05:56.095Z,22.17
2022-08-10T18:08:28.978Z,22.15
2022-08-10T18:10:59.588Z,22.16
2022-08-10T18:13:56.333Z,22.09
2022-08-10T18:16:24.838Z,21.87
2022-08-10T18:19:00.034Z,21.59
2022-08-10T18:21:31.973Z,21.31
2022-08-10T18:24:02.083Z,21.16
2022-08-10T18:26:36.095Z,20.96
2022-08-10T18:29:10.768Z,21.71
2022-08-10T18:31:44.694Z,21.60
2022-08-10T18:34:19.504Z,21.26
2022-08-10T18:36:49.594Z,20.34
2022-08-10T18:39:22.692Z,21.31
2022-08-10T18:42:00.147Z,21.27
2022-08-10T18:44:37.065Z,21.08
2022-08-10T18:47:14.321Z,21.34
2022-08-10T18:50:02.143Z,20.52
2022-08-10T18:52:33.731Z,21.18
2022-08-10T18:55:14.506Z,20.99
2022-08-10T18:58:08.668Z,20.62
2022-08-10T19:00:49.339Z,20.46
2022-08-10T19:03:32.215Z,20.34
2022-08-10T19:06:17.914Z,19.95
2022-08-10T19:08:59.896Z,20.61
2022-08-10T19:11:48.040Z,20.50
2022-08-10T19:14:19.091Z,19.91
2022-08-10T19:16:55.666Z,20.14
2022-08-10T19:19:36.738Z,20.03
2022-08-10T19:22:09.933Z,20.09
2022-08-10T19:24:48.127Z,19.84
2022-08-10T19:27:31.708Z,19.59
2022-08-10T19:30:11.236Z,20.02
2022-08-10T19:32:56.041Z,19.83
2022-08-10T19:36:04.548Z,19.40
2022-08-10T19:38:33.762Z,19.46
2022-08-10T19:41:13.860Z,19.37
2022-08-10T19:44:00.533Z,18.82
2022-08-10T19:46:40.121Z,19.46
2022-08-10T19:49:19.450Z,19.28
2022-08-10T19:51:56.566Z,19.48
2022-08-10T19:54:34.574Z,19.54
2022-08-10T19:57:08.761Z,19.45
2022-08-10T20:00:15.812Z,18.98
2022-08-10T20:02:51.427Z,19.04
2022-08-10T20:05:28.657Z,19.10
2022-08-10T20:08:03.614Z,18.90
2022-08-10T20:10:44.331Z,18.25
2022-08-10T20:13:15.629Z,19.01
2022-08-10T20:15:47.562Z,18.45
2022-08-10T20:18:23.892Z,18.86
2022-08-10T20:20:59.038Z,19.22
2022-08-10T20:23:33.920Z,19.06
2022-08-10T20:26:11.264Z,19.13
2022-08-10T20:28:43.331Z,18.72
2022-08-10T20:31:17.797Z,19.25
2022-08-10T20:34:00.334Z,18.57
2022-08-10T20:36:32.687Z,19.27
2022-08-10T20:39:12.315Z,19.21
2022-08-10T20:41:57.932Z,19.05
2022-08-10T20:44:39.965Z,18.98
2022-08-10T20:47:31.776Z,18.80
2022-08-10T20:50:07.747Z,18.69
2022-08-10T20:52:37.269Z,18.94
2022-08-10T20:55:10.671Z,18.95
2022-08-10T20:58:01.577Z,18.85
2022-08-10T21:00:42.882Z,18.93
2022-08-10T21:03:32.914Z,18.91
2022-08-10T21:06:14.995Z,18.66
2022-08-10T21:08:51.952Z,18.80
2022-08-10T21:11:35.151Z,18.72
2022-08-10T21:14:21.104Z,18.83
2022-08-10T21:17:06.354Z,18.86
2022-08-10T21:20:06.784Z,18.82
2022-08-10T21:22:39.964Z,18.56
2022-08-10T21:25:12.668Z,18.36
2022-08-10T21:28:16.724Z,18.72
2022-08-10T21:31:11.932Z,18.31
2022-08-10T21:33:46.129Z,18.63
2022-08-10T21:36:22.620Z,18.54
2022-08-10T21:38:58.226Z,18.27
2022-08-10T21:41:58.812Z,18.23
2022-08-10T21:45:08.158Z,18.34
2022-08-10T21:48:17.373Z,18.21
2022-08-10T21:51:10.362Z,18.03
2022-08-10T21:54:09.058Z,17.97
2022-08-10T21:56:59.342Z,17.98
2022-08-10T21:59:51.095Z,17.84
2022-08-10T22:02:50.274Z,17.71
2022-08-10T22:05:44.541Z,17.65
2022-08-10T22:08:34.806Z,17.53
2022-08-10T22:11:22.546Z,17.40
2022-08-10T22:14:10.315Z,17.45
2022-08-10T22:17:59.361Z,17.43
2022-08-10T22:20:18.739Z,17.31
2022-08-10T22:23:30.743Z,17.24
2022-08-10T22:26:27.522Z,16.78
2022-08-10T22:29:17.221Z,17.04
2022-08-10T22:32:17.422Z,16.98
2022-08-10T22:35:31.379Z,16.57
2022-08-10T22:38:33.987Z,16.84
2022-08-10T22:41:27.514Z,16.59
2022-08-10T22:44:18.159Z,16.71
2022-08-10T22:47:05.074Z,16.51
2022-08-10T22:49:32.023Z,16.54
2022-08-10T22:52:07.577Z,16.16
2022-08-10T22:54:59.967Z,16.45
2022-08-10T22:57:45.442Z,16.27
2022-08-10T23:00:16.482Z,16.39
2022-08-10T23:02:57.178Z,16.19
2022-08-10T23:05:32.037Z,16.10
2022-08-10T23:08:05.096Z,16.13
2022-08-10T23:10:42.266Z,16.00
2022-08-10T23:13:35.312Z,15.99
2022-08-10T23:16:26.525Z,15.50
2022-08-10T23:19:11.567Z,16.01
2022-08-10T23:22:05.118Z,15.98
2022-08-10T23:24:38.524Z,15.68
2022-08-10T23:27:13.208Z,15.86
2022-08-10T23:30:09.873Z,15.78
2022-08-10T23:32:42.497Z,15.72
2022-08-10T23:36:31.269Z,15.69
2022-08-10T23:38:04.411Z,15.67
2022-08-10T23:40:33.459Z,15.32
2022-08-10T23:43:04.101Z,15.22
2022-08-10T23:45:53.474Z,15.39
2022-08-10T23:48:23.620Z,15.46
2022-08-10T23:50:59.204Z,15.47
2022-08-10T23:53:30.344Z,15.16
2022-08-10T23:56:09.754Z,14.91
2022-08-10T23:58:43.631Z,15.09
